createdAt,value
2016-11-17T00:00:03.546Z,0
2016-11-17T00:01:05.126Z,0
2016-11-17T00:02:03.582Z,0
2016-11-17T00:03:04.552Z,0
2016-11-17T00:04:04.186Z,0
2016-11-17T00:05:04.275Z,0
2016-11-17T00:06:03.956Z,0
2016-11-17T00:07:04.981Z,0
2016-11-17T00:08:05.267Z,0
2016-11-17T00:09:05.460Z,0
2016-11-17T00:10:04.909Z,0
2016-11-17T00:11:05.625Z,0
2016-11-17T00:12:04.055Z,0
2016-11-17T00:13:06.835Z,0
2016-11-17T00:14:04.420Z,0
2016-11-17T00:15:03.189Z,0
2016-11-17T00:16:04.394Z,0
2016-11-17T00:17:07.791Z,0
2016-11-17T00:18:05.387Z,0
2016-11-17T00:19:04.677Z,0
2016-11-17T00:20:05.648Z,0
2016-11-17T00:21:06.449Z,0
2016-11-17T00:22:05.264Z,0
2016-11-17T00:23:06.832Z,0
2016-11-17T00:24:06.362Z,0
2016-11-17T00:25:05.035Z,0
2016-11-17T00:26:05.842Z,0
2016-11-17T00:27:06.121Z,0
2016-11-17T00:28:06.083Z,0
2016-11-17T00:29:08.276Z,0
2016-11-17T00:30:07.198Z,0
2016-11-17T00:31:05.367Z,0
2016-11-17T00:32:04.198Z,0
2016-11-17T00:33:03.962Z,0
2016-11-17T00:34:06.720Z,0
2016-11-17T00:35:04.433Z,0
2016-11-17T00:36:04.075Z,0
2016-11-17T00:37:07.182Z,0
2016-11-17T00:38:06.694Z,0
2016-11-17T00:39:03.934Z,0
2016-11-17T00:40:05.519Z,0
2016-11-17T00:41:04.071Z,0
2016-11-17T00:42:05.717Z,0
2016-11-17T00:43:04.208Z,0
2016-11-17T00:44:03.959Z,0
2016-11-17T00:45:05.291Z,0
2016-11-17T00:46:04.067Z,0
2016-11-17T00:47:05.742Z,0
2016-11-17T00:48:05.766Z,0
2016-11-17T00:49:05.143Z,0
2016-11-17T00:50:05.036Z,0
2016-11-17T00:51:04.808Z,0
2016-11-17T00:52:05.012Z,0
2016-11-17T00:53:05.010Z,0
2016-11-17T00:54:04.336Z,0
2016-11-17T00:55:04.304Z,0
2016-11-17T00:56:04.912Z,0
2016-11-17T00:57:04.450Z,0
2016-11-17T00:58:04.211Z,0
2016-11-17T00:59:04.074Z,0
2016-11-17T01:00:04.331Z,0
2016-11-17T01:01:04.213Z,0
2016-11-17T01:02:04.460Z,0
2016-11-17T01:03:04.215Z,0
2016-11-17T01:04:04.431Z,0
2016-11-17T01:05:04.577Z,0
2016-11-17T01:06:05.178Z,0
2016-11-17T01:07:04.800Z,0
2016-11-17T01:08:03.833Z,0
2016-11-17T01:09:04.326Z,0
2016-11-17T01:10:04.191Z,0
2016-11-17T01:11:04.822Z,0
2016-11-17T01:12:04.455Z,0
2016-11-17T01:13:04.336Z,0
2016-11-17T01:14:04.100Z,0
2016-11-17T01:15:04.306Z,0
2016-11-17T01:16:04.816Z,0
2016-11-17T01:17:04.902Z,0
2016-11-17T01:18:05.547Z,0
2016-11-17T01:19:04.819Z,0
2016-11-17T01:20:04.944Z,0
2016-11-17T01:21:04.464Z,0
2016-11-17T01:22:04.070Z,0
2016-11-17T01:23:05.301Z,0
2016-11-17T01:24:05.033Z,0
2016-11-17T01:25:05.076Z,0
2016-11-17T01:26:04.465Z,0
2016-11-17T01:27:05.170Z,0
2016-11-17T01:28:03.849Z,0
2016-11-17T01:29:04.439Z,0
2016-11-17T01:30:04.326Z,0
2016-11-17T01:31:04.109Z,0
2016-11-17T01:32:06.129Z,0
2016-11-17T01:33:04.334Z,0
2016-11-17T01:34:04.328Z,0
2016-11-17T01:35:04.831Z,0
2016-11-17T01:36:05.077Z,0
2016-11-17T01:37:05.286Z,0
2016-11-17T01:38:05.555Z,0
2016-11-17T01:39:05.322Z,0
2016-11-17T01:40:05.793Z,0
2016-11-17T01:41:04.953Z,0
2016-11-17T01:42:04.466Z,0
2016-11-17T01:43:04.925Z,0
2016-11-17T01:44:05.080Z,0
2016-11-17T01:45:04.593Z,0
2016-11-17T01:46:04.238Z,0
2016-11-17T01:47:05.185Z,0
2016-11-17T01:48:04.714Z,0
2016-11-17T01:49:05.920Z,0
2016-11-17T01:50:05.295Z,0
2016-11-17T01:51:05.196Z,0
2016-11-17T01:52:05.193Z,0
2016-11-17T01:53:06.039Z,0
2016-11-17T01:54:04.355Z,0
2016-11-17T01:55:04.241Z,0
2016-11-17T01:56:04.839Z,0
2016-11-17T01:57:04.453Z,0
2016-11-17T01:58:04.487Z,0
2016-11-17T01:59:04.364Z,0
2016-11-17T02:00:05.689Z,0
2016-11-17T02:01:06.125Z,0
2016-11-17T02:02:05.065Z,0
2016-11-17T02:03:04.825Z,0
2016-11-17T02:04:05.193Z,0
2016-11-17T02:05:04.937Z,0
2016-11-17T02:06:04.827Z,0
2016-11-17T02:07:05.207Z,0
2016-11-17T02:08:05.175Z,0
2016-11-17T02:09:05.171Z,0
2016-11-17T02:10:05.174Z,0
2016-11-17T02:11:06.751Z,0
2016-11-17T02:12:05.322Z,0
2016-11-17T02:13:05.300Z,0
2016-11-17T02:14:05.784Z,0
2016-11-17T02:15:05.474Z,0
2016-11-17T02:16:05.649Z,0
2016-11-17T02:17:05.182Z,0
2016-11-17T02:18:05.476Z,0
2016-11-17T02:19:05.544Z,0
2016-11-17T02:20:05.665Z,0
2016-11-17T02:21:06.291Z,0
2016-11-17T02:22:05.957Z,0
2016-11-17T02:23:05.198Z,0
2016-11-17T02:24:05.777Z,0
2016-11-17T02:25:05.424Z,0
2016-11-17T02:26:05.793Z,0
2016-11-17T02:27:05.783Z,0
2016-11-17T02:28:06.373Z,0
2016-11-17T02:29:05.906Z,0
2016-11-17T02:30:06.747Z,0
2016-11-17T02:31:06.727Z,0
2016-11-17T02:32:06.020Z,0
2016-11-17T02:33:05.940Z,0
2016-11-17T02:34:06.251Z,0
2016-11-17T02:35:05.418Z,0
2016-11-17T02:36:06.055Z,0
2016-11-17T02:37:06.058Z,0
2016-11-17T02:38:06.414Z,0
2016-11-17T02:39:06.185Z,0
2016-11-17T02:40:06.500Z,0
2016-11-17T02:41:06.767Z,0
2016-11-17T02:42:06.795Z,0
2016-11-17T02:43:05.906Z,0
2016-11-17T02:44:05.667Z,0
2016-11-17T02:45:05.221Z,0
2016-11-17T02:46:06.509Z,0
2016-11-17T02:47:06.978Z,0
2016-11-17T02:48:06.303Z,0
2016-11-17T02:49:06.782Z,0
2016-11-17T02:50:05.827Z,0
2016-11-17T02:51:06.665Z,0
2016-11-17T02:52:06.503Z,0
2016-11-17T02:53:06.510Z,0
2016-11-17T02:54:05.965Z,0
2016-11-17T02:55:06.395Z,0
2016-11-17T02:56:06.264Z,0
2016-11-17T02:57:06.179Z,0
2016-11-17T02:58:06.757Z,0
2016-11-17T02:59:07.156Z,0
2016-11-17T03:00:06.430Z,0
2016-11-17T03:01:07.505Z,0
2016-11-17T03:02:07.632Z,0
2016-11-17T03:03:06.911Z,0
2016-11-17T03:04:07.146Z,0
2016-11-17T03:05:06.520Z,0
2016-11-17T03:06:06.791Z,0
2016-11-17T03:07:07.153Z,0
2016-11-17T03:08:06.652Z,0
2016-11-17T03:09:07.708Z,0
2016-11-17T03:10:06.315Z,0
2016-11-17T03:11:06.208Z,0
2016-11-17T03:12:06.561Z,0
2016-11-17T03:13:06.404Z,0
2016-11-17T03:14:06.919Z,0
2016-11-17T03:15:06.054Z,0
2016-11-17T03:16:08.091Z,0
2016-11-17T03:17:08.360Z,0
2016-11-17T03:18:06.894Z,0
2016-11-17T03:19:07.406Z,0
2016-11-17T03:20:06.753Z,0
2016-11-17T03:21:09.196Z,0
2016-11-17T03:22:08.704Z,0
2016-11-17T03:23:08.088Z,0
2016-11-17T03:24:08.839Z,0
2016-11-17T03:25:09.165Z,0
2016-11-17T03:26:08.123Z,0
2016-11-17T03:27:08.482Z,0
2016-11-17T03:28:09.814Z,0
2016-11-17T03:29:10.647Z,0
2016-11-17T03:30:09.684Z,0
2016-11-17T03:31:08.250Z,0
2016-11-17T03:32:08.704Z,0
2016-11-17T03:33:07.894Z,0
2016-11-17T03:34:09.083Z,0
2016-11-17T03:35:11.022Z,0
2016-11-17T03:36:08.353Z,0
2016-11-17T03:37:09.214Z,0
2016-11-17T03:38:12.811Z,0
2016-11-17T03:39:10.048Z,0
2016-11-17T03:40:08.365Z,0
2016-11-17T03:41:10.982Z,0
2016-11-17T03:42:10.386Z,0
2016-11-17T03:43:10.421Z,0
2016-11-17T03:44:08.608Z,0
2016-11-17T03:45:09.569Z,0
2016-11-17T03:46:07.532Z,0
2016-11-17T03:47:10.520Z,0
2016-11-17T03:48:07.901Z,0
2016-11-17T03:49:08.489Z,0
2016-11-17T03:50:08.976Z,0
2016-11-17T03:51:08.697Z,0
2016-11-17T03:52:10.416Z,0
2016-11-17T03:53:08.744Z,0
2016-11-17T03:54:06.699Z,0
2016-11-17T03:55:08.252Z,0
2016-11-17T03:56:08.978Z,0
2016-11-17T03:57:08.215Z,0
2016-11-17T03:58:08.850Z,0
2016-11-17T03:59:08.503Z,0
2016-11-17T04:00:08.261Z,0
2016-11-17T04:01:08.023Z,0
2016-11-17T04:02:08.130Z,0
2016-11-17T04:03:08.263Z,0
2016-11-17T04:04:08.860Z,0
2016-11-17T04:05:07.167Z,0
2016-11-17T04:06:06.930Z,0
2016-11-17T04:07:07.295Z,0
2016-11-17T04:08:07.305Z,0
2016-11-17T04:09:08.144Z,0
2016-11-17T04:10:08.027Z,0
2016-11-17T04:11:08.976Z,0
2016-11-17T04:12:07.760Z,0
2016-11-17T04:13:07.783Z,0
2016-11-17T04:14:08.622Z,0
2016-11-17T04:15:08.257Z,0
2016-11-17T04:16:07.648Z,0
2016-11-17T04:17:08.511Z,0
2016-11-17T04:18:07.668Z,0
2016-11-17T04:19:07.536Z,0
2016-11-17T04:20:07.896Z,0
2016-11-17T04:21:08.034Z,0
2016-11-17T04:22:09.467Z,0
2016-11-17T04:23:08.136Z,0
2016-11-17T04:24:08.287Z,0
2016-11-17T04:25:07.915Z,0
2016-11-17T04:26:07.557Z,0
2016-11-17T04:27:08.635Z,0
2016-11-17T04:28:07.908Z,0
2016-11-17T04:29:08.744Z,0
2016-11-17T04:30:07.667Z,0
2016-11-17T04:31:07.904Z,0
2016-11-17T04:32:07.534Z,0
2016-11-17T04:33:08.026Z,0
2016-11-17T04:34:08.766Z,0
2016-11-17T04:35:07.643Z,0
2016-11-17T04:36:07.421Z,0
2016-11-17T04:37:08.024Z,0
2016-11-17T04:38:08.005Z,0
2016-11-17T04:39:08.025Z,0
2016-11-17T04:40:07.926Z,0
2016-11-17T04:41:07.903Z,0
2016-11-17T04:42:08.362Z,0
2016-11-17T04:43:07.927Z,0
2016-11-17T04:44:07.674Z,0
2016-11-17T04:45:08.026Z,0
2016-11-17T04:46:08.165Z,0
2016-11-17T04:47:07.683Z,0
2016-11-17T04:48:07.569Z,0
2016-11-17T04:49:08.291Z,0
2016-11-17T04:50:08.285Z,0
2016-11-17T04:51:08.512Z,0
2016-11-17T04:52:07.672Z,0
2016-11-17T04:53:08.042Z,0
2016-11-17T04:54:08.141Z,0
2016-11-17T04:55:07.933Z,0
2016-11-17T04:56:08.632Z,0
2016-11-17T04:57:07.793Z,0
2016-11-17T04:58:08.413Z,0
2016-11-17T04:59:07.570Z,0
2016-11-17T05:00:07.782Z,0
2016-11-17T05:01:08.173Z,0
2016-11-17T05:02:07.543Z,0
2016-11-17T05:03:07.809Z,0
2016-11-17T05:04:08.282Z,0
2016-11-17T05:05:07.704Z,0
2016-11-17T05:06:07.575Z,0
2016-11-17T05:07:07.579Z,0
2016-11-17T05:08:08.514Z,0
2016-11-17T05:09:07.920Z,0
2016-11-17T05:10:07.216Z,0
2016-11-17T05:11:07.699Z,0
2016-11-17T05:12:08.436Z,0
2016-11-17T05:13:09.639Z,0
2016-11-17T05:14:09.043Z,0
2016-11-17T05:15:07.617Z,0
2016-11-17T05:16:10.099Z,0
2016-11-17T05:17:08.198Z,0
2016-11-17T05:18:07.882Z,0
2016-11-17T05:19:09.389Z,0
2016-11-17T05:20:08.934Z,0
2016-11-17T05:21:08.785Z,0
2016-11-17T05:22:08.862Z,0
2016-11-17T05:23:08.717Z,0
2016-11-17T05:24:07.848Z,0
2016-11-17T05:25:08.855Z,0
2016-11-17T05:26:10.113Z,0
2016-11-17T05:27:08.756Z,0
2016-11-17T05:28:08.051Z,0
2016-11-17T05:29:10.769Z,0
2016-11-17T05:30:08.361Z,0
2016-11-17T05:31:09.877Z,0
2016-11-17T05:32:08.239Z,0
2016-11-17T05:33:08.561Z,0
2016-11-17T05:34:08.504Z,0
2016-11-17T05:35:08.137Z,0
2016-11-17T05:36:08.526Z,0
2016-11-17T05:37:08.716Z,0
2016-11-17T05:38:08.941Z,0
2016-11-17T05:39:08.398Z,0
2016-11-17T05:40:09.549Z,0
2016-11-17T05:41:08.710Z,0
2016-11-17T05:42:10.762Z,0
2016-11-17T05:43:09.601Z,0
2016-11-17T05:44:09.853Z,0
2016-11-17T05:45:08.472Z,0
2016-11-17T05:46:09.842Z,0
2016-11-17T05:47:09.093Z,0
2016-11-17T05:48:09.240Z,0
2016-11-17T05:49:09.284Z,0
2016-11-17T05:50:09.988Z,0
2016-11-17T05:51:09.628Z,0
2016-11-17T05:52:08.993Z,0
2016-11-17T05:53:08.768Z,0
2016-11-17T05:54:10.244Z,0
2016-11-17T05:55:10.468Z,0
2016-11-17T05:56:08.930Z,0
2016-11-17T05:57:08.722Z,0
2016-11-17T05:58:08.572Z,0
2016-11-17T05:59:08.161Z,0
2016-11-17T06:00:09.259Z,0
2016-11-17T06:01:08.626Z,0
2016-11-17T06:02:09.519Z,0
2016-11-17T06:03:10.246Z,0
2016-11-17T06:04:09.514Z,0
2016-11-17T06:05:08.232Z,0
2016-11-17T06:06:09.614Z,0
2016-11-17T06:07:10.080Z,0
2016-11-17T06:08:09.745Z,0
2016-11-17T06:09:08.912Z,0
2016-11-17T06:10:09.198Z,0
2016-11-17T06:11:09.653Z,0
2016-11-17T06:12:09.432Z,0
2016-11-17T06:13:09.420Z,0
2016-11-17T06:14:09.754Z,0
2016-11-17T06:15:08.813Z,0
2016-11-17T06:16:08.753Z,0
2016-11-17T06:17:08.891Z,0
2016-11-17T06:18:08.862Z,0
2016-11-17T06:19:09.094Z,0
2016-11-17T06:20:08.733Z,0
2016-11-17T06:21:10.214Z,0
2016-11-17T06:22:09.044Z,0
2016-11-17T06:23:08.907Z,0
2016-11-17T06:24:10.426Z,0
2016-11-17T06:25:10.434Z,0
2016-11-17T06:26:11.452Z,0
2016-11-17T06:27:09.259Z,0
2016-11-17T06:28:09.112Z,0
2016-11-17T06:29:08.806Z,0
2016-11-17T06:30:09.333Z,0
2016-11-17T06:31:09.256Z,0
2016-11-17T06:32:10.251Z,0
2016-11-17T06:33:10.501Z,0
2016-11-17T06:34:10.094Z,0
2016-11-17T06:35:13.296Z,0
2016-11-17T06:36:09.747Z,0
2016-11-17T06:37:09.678Z,0
2016-11-17T06:38:09.334Z,0
2016-11-17T06:39:09.647Z,0
2016-11-17T06:40:10.069Z,0
2016-11-17T06:41:09.287Z,0
2016-11-17T06:42:11.236Z,0
2016-11-17T06:43:10.110Z,0
2016-11-17T06:44:09.212Z,5
2016-11-17T06:45:10.270Z,5
2016-11-17T06:46:09.652Z,5
2016-11-17T06:47:09.355Z,5
2016-11-17T06:48:09.234Z,10
2016-11-17T06:49:10.235Z,10
2016-11-17T06:50:09.628Z,10
2016-11-17T06:51:10.277Z,10
2016-11-17T06:52:11.405Z,15
2016-11-17T06:53:10.388Z,15
2016-11-17T06:54:09.408Z,20
2016-11-17T06:55:10.453Z,20
2016-11-17T06:56:09.659Z,20
2016-11-17T06:57:10.696Z,20
2016-11-17T06:58:10.352Z,25
2016-11-17T06:59:09.772Z,25
2016-11-17T07:00:10.169Z,25
2016-11-17T07:01:09.044Z,25
2016-11-17T07:02:09.983Z,30
2016-11-17T07:03:10.095Z,35
2016-11-17T07:04:08.625Z,35
2016-11-17T07:05:13.042Z,35
2016-11-17T07:06:11.264Z,40
2016-11-17T07:07:11.510Z,40
2016-11-17T07:08:10.921Z,45
2016-11-17T07:09:11.939Z,50
2016-11-17T07:10:10.921Z,50
2016-11-17T07:11:12.268Z,45
2016-11-17T07:12:12.261Z,45
2016-11-17T07:13:12.513Z,45
2016-11-17T07:14:12.119Z,50
2016-11-17T07:15:11.652Z,55
2016-11-17T07:16:12.275Z,45
2016-11-17T07:17:13.679Z,50
2016-11-17T07:18:12.868Z,55
2016-11-17T07:19:12.111Z,50
2016-11-17T07:20:11.701Z,55
2016-11-17T07:21:13.068Z,65
2016-11-17T07:22:10.720Z,70
2016-11-17T07:23:12.412Z,65
2016-11-17T07:24:12.800Z,55
2016-11-17T07:25:11.790Z,50
2016-11-17T07:26:12.652Z,55
2016-11-17T07:27:14.081Z,50
2016-11-17T07:28:13.427Z,50
2016-11-17T07:29:13.369Z,50
2016-11-17T07:30:11.493Z,50
2016-11-17T07:31:11.661Z,40
2016-11-17T07:32:12.559Z,35
2016-11-17T07:33:12.547Z,35
2016-11-17T07:34:13.284Z,30
2016-11-17T07:35:11.955Z,30
2016-11-17T07:36:10.331Z,25
2016-11-17T07:37:10.092Z,25
2016-11-17T07:38:09.679Z,25
2016-11-17T07:39:10.802Z,35
2016-11-17T07:40:12.482Z,40
2016-11-17T07:41:12.702Z,25
2016-11-17T07:42:12.166Z,25
2016-11-17T07:43:11.756Z,35
2016-11-17T07:44:11.322Z,35
2016-11-17T07:45:11.798Z,35
2016-11-17T07:46:10.731Z,55
2016-11-17T07:47:10.576Z,65
2016-11-17T07:48:10.791Z,75
2016-11-17T07:49:10.605Z,75
2016-11-17T07:50:10.663Z,70
2016-11-17T07:51:11.244Z,65
2016-11-17T07:52:11.774Z,70
2016-11-17T07:53:10.800Z,65
2016-11-17T07:54:10.449Z,65
2016-11-17T07:55:12.004Z,70
2016-11-17T07:56:11.976Z,70
2016-11-17T07:57:11.484Z,70
2016-11-17T07:58:12.060Z,70
2016-11-17T07:59:12.221Z,85
2016-11-17T08:00:11.819Z,100
2016-11-17T08:01:11.845Z,110
2016-11-17T08:02:12.127Z,120
2016-11-17T08:03:11.910Z,130
2016-11-17T08:04:11.247Z,130
2016-11-17T08:05:11.039Z,125
2016-11-17T08:06:10.873Z,130
2016-11-17T08:07:10.687Z,135
2016-11-17T08:08:10.661Z,145
2016-11-17T08:09:11.448Z,155
2016-11-17T08:10:10.519Z,170
2016-11-17T08:11:11.642Z,160
2016-11-17T08:12:12.587Z,170
2016-11-17T08:13:11.866Z,180
2016-11-17T08:14:12.420Z,200
2016-11-17T08:15:12.680Z,205
2016-11-17T08:16:10.549Z,210
2016-11-17T08:17:11.197Z,230
2016-11-17T08:18:10.950Z,245
2016-11-17T08:19:11.073Z,255
2016-11-17T08:20:11.265Z,260
2016-11-17T08:21:10.549Z,275
2016-11-17T08:22:11.420Z,285
2016-11-17T08:23:11.621Z,295
2016-11-17T08:24:11.552Z,295
2016-11-17T08:25:12.141Z,295
2016-11-17T08:26:11.524Z,300
2016-11-17T08:27:11.510Z,300
2016-11-17T08:28:12.322Z,310
2016-11-17T08:29:11.530Z,315
2016-11-17T08:30:11.872Z,305
2016-11-17T08:31:11.926Z,305
2016-11-17T08:32:11.087Z,295
2016-11-17T08:33:12.538Z,285
2016-11-17T08:34:09.854Z,285
2016-11-17T08:35:10.186Z,285
2016-11-17T08:36:12.173Z,295
2016-11-17T08:37:11.689Z,300
2016-11-17T08:38:11.817Z,305
2016-11-17T08:39:12.218Z,300
2016-11-17T08:40:12.842Z,285
2016-11-17T08:41:11.385Z,255
2016-11-17T08:42:11.738Z,225
2016-11-17T08:43:12.815Z,215
2016-11-17T08:44:11.768Z,220
2016-11-17T08:45:12.292Z,230
2016-11-17T08:46:11.870Z,220
2016-11-17T08:47:12.712Z,200
2016-11-17T08:48:11.737Z,205
2016-11-17T08:49:12.938Z,190
2016-11-17T08:50:12.037Z,190
2016-11-17T08:51:12.050Z,195
2016-11-17T08:52:11.935Z,200
2016-11-17T08:53:12.298Z,210
2016-11-17T08:54:11.773Z,220
2016-11-17T08:55:11.453Z,220
2016-11-17T08:56:11.797Z,230
2016-11-17T08:57:12.141Z,240
2016-11-17T08:58:12.779Z,225
2016-11-17T08:59:12.079Z,215
2016-11-17T09:00:12.824Z,235
2016-11-17T09:01:12.146Z,250
2016-11-17T09:02:12.454Z,295
2016-11-17T09:03:12.666Z,330
2016-11-17T09:04:12.672Z,315
2016-11-17T09:05:13.158Z,305
2016-11-17T09:06:12.183Z,315
2016-11-17T09:07:12.564Z,340
2016-11-17T09:08:11.825Z,345
2016-11-17T09:09:13.724Z,330
2016-11-17T09:10:11.840Z,320
2016-11-17T09:11:11.479Z,300
2016-11-17T09:12:12.537Z,280
2016-11-17T09:13:12.078Z,280
2016-11-17T09:14:12.092Z,290
2016-11-17T09:15:12.026Z,315
2016-11-17T09:16:12.500Z,335
2016-11-17T09:17:12.162Z,365
2016-11-17T09:18:12.503Z,380
2016-11-17T09:19:12.489Z,370
2016-11-17T09:20:12.292Z,330
2016-11-17T09:21:11.930Z,295
2016-11-17T09:22:11.583Z,285
2016-11-17T09:23:12.277Z,270
2016-11-17T09:24:13.457Z,255
2016-11-17T09:25:12.585Z,245
2016-11-17T09:26:12.455Z,240
2016-11-17T09:27:12.715Z,250
2016-11-17T09:28:12.416Z,255
2016-11-17T09:29:12.729Z,255
2016-11-17T09:30:13.393Z,250
2016-11-17T09:31:12.349Z,205
2016-11-17T09:32:12.423Z,220
2016-11-17T09:33:12.437Z,245
2016-11-17T09:34:13.228Z,250
2016-11-17T09:35:13.464Z,240
2016-11-17T09:36:12.425Z,230
2016-11-17T09:37:12.652Z,220
2016-11-17T09:38:12.805Z,215
2016-11-17T09:39:12.990Z,210
2016-11-17T09:40:12.091Z,190
2016-11-17T09:41:12.949Z,175
2016-11-17T09:42:11.797Z,165
2016-11-17T09:43:12.637Z,190
2016-11-17T09:44:13.634Z,255
2016-11-17T09:45:13.863Z,285
2016-11-17T09:46:12.098Z,290
2016-11-17T09:47:12.496Z,260
2016-11-17T09:48:13.280Z,245
2016-11-17T09:49:14.785Z,230
2016-11-17T09:50:13.263Z,220
2016-11-17T09:51:13.415Z,235
2016-11-17T09:52:12.660Z,240
2016-11-17T09:53:14.755Z,210
2016-11-17T09:54:13.060Z,195
2016-11-17T09:55:12.949Z,195
2016-11-17T09:56:12.738Z,180
2016-11-17T09:57:14.554Z,200
2016-11-17T09:58:12.811Z,245
2016-11-17T09:59:13.426Z,280
2016-11-17T10:00:13.191Z,275
2016-11-17T10:01:13.120Z,255
2016-11-17T10:02:12.668Z,275
2016-11-17T10:03:12.928Z,290
2016-11-17T10:04:12.884Z,295
2016-11-17T10:05:13.422Z,310
2016-11-17T10:06:12.803Z,315
2016-11-17T10:07:13.757Z,320
2016-11-17T10:08:13.602Z,315
2016-11-17T10:09:14.508Z,310
2016-11-17T10:10:13.385Z,310
2016-11-17T10:11:13.333Z,300
2016-11-17T10:12:12.869Z,315
2016-11-17T10:13:13.105Z,335
2016-11-17T10:14:13.649Z,340
2016-11-17T10:15:12.970Z,340
2016-11-17T10:16:14.242Z,345
2016-11-17T10:17:13.349Z,370
2016-11-17T10:18:13.339Z,390
2016-11-17T10:19:13.672Z,390
2016-11-17T10:20:13.677Z,365
2016-11-17T10:21:13.012Z,335
2016-11-17T10:22:13.023Z,335
2016-11-17T10:23:13.571Z,345
2016-11-17T10:24:13.328Z,335
2016-11-17T10:25:13.939Z,330
2016-11-17T10:26:14.271Z,315
2016-11-17T10:27:13.599Z,290
2016-11-17T10:28:14.194Z,270
2016-11-17T10:29:14.765Z,260
2016-11-17T10:30:12.783Z,270
2016-11-17T10:31:13.678Z,315
2016-11-17T10:32:15.252Z,370
2016-11-17T10:33:14.103Z,395
2016-11-17T10:34:15.239Z,395
2016-11-17T10:35:13.175Z,375
2016-11-17T10:36:13.385Z,375
2016-11-17T10:37:13.063Z,365
2016-11-17T10:38:13.812Z,365
2016-11-17T10:39:13.062Z,375
2016-11-17T10:40:14.517Z,370
2016-11-17T10:41:14.650Z,350
2016-11-17T10:42:14.077Z,325
2016-11-17T10:43:13.614Z,325
2016-11-17T10:44:15.071Z,360
2016-11-17T10:45:14.579Z,405
2016-11-17T10:46:13.020Z,490
2016-11-17T10:47:14.518Z,555
2016-11-17T10:48:14.425Z,575
2016-11-17T10:49:14.070Z,605
2016-11-17T10:50:14.371Z,600
2016-11-17T10:51:13.507Z,500
2016-11-17T10:52:14.580Z,435
2016-11-17T10:53:15.237Z,410
2016-11-17T10:54:14.181Z,390
2016-11-17T10:55:13.854Z,350
2016-11-17T10:56:13.349Z,340
2016-11-17T10:57:14.686Z,350
2016-11-17T10:58:14.939Z,365
2016-11-17T10:59:14.346Z,380
2016-11-17T11:00:13.755Z,395
2016-11-17T11:01:14.767Z,385
2016-11-17T11:02:15.470Z,365
2016-11-17T11:03:14.058Z,330
2016-11-17T11:04:14.206Z,290
2016-11-17T11:05:14.454Z,280
2016-11-17T11:06:14.957Z,275
2016-11-17T11:07:14.475Z,270
2016-11-17T11:08:14.873Z,245
2016-11-17T11:09:14.800Z,215
2016-11-17T11:10:14.335Z,195
2016-11-17T11:11:15.171Z,175
2016-11-17T11:12:14.452Z,165
2016-11-17T11:13:14.491Z,185
2016-11-17T11:14:14.106Z,215
2016-11-17T11:15:14.295Z,265
2016-11-17T11:16:15.759Z,290
2016-11-17T11:17:14.725Z,280
2016-11-17T11:18:15.750Z,245
2016-11-17T11:19:14.759Z,290
2016-11-17T11:20:14.531Z,320
2016-11-17T11:21:15.502Z,360
2016-11-17T11:22:14.957Z,355
2016-11-17T11:23:15.345Z,340
2016-11-17T11:24:15.029Z,355
2016-11-17T11:25:14.548Z,375
2016-11-17T11:26:14.697Z,395
2016-11-17T11:27:14.768Z,400
2016-11-17T11:28:14.854Z,480
2016-11-17T11:29:15.429Z,540
2016-11-17T11:30:15.498Z,585
2016-11-17T11:31:15.136Z,630
2016-11-17T11:32:15.280Z,690
2016-11-17T11:33:14.578Z,705
2016-11-17T11:34:15.107Z,715
2016-11-17T11:35:14.611Z,725
2016-11-17T11:36:14.653Z,655
2016-11-17T11:37:14.508Z,565
2016-11-17T11:38:14.750Z,515
2016-11-17T11:39:14.725Z,530
2016-11-17T11:40:15.093Z,485
2016-11-17T11:41:15.212Z,395
2016-11-17T11:42:14.502Z,340
2016-11-17T11:43:14.574Z,320
2016-11-17T11:44:15.412Z,335
2016-11-17T11:45:14.306Z,360
2016-11-17T11:46:16.074Z,355
2016-11-17T11:47:15.669Z,365
2016-11-17T11:48:15.033Z,440
2016-11-17T11:49:14.628Z,530
2016-11-17T11:50:15.072Z,540
2016-11-17T11:51:15.926Z,500
2016-11-17T11:52:15.341Z,485
2016-11-17T11:53:14.771Z,480
2016-11-17T11:54:15.426Z,480
2016-11-17T11:55:15.747Z,475
2016-11-17T11:56:14.746Z,475
2016-11-17T11:57:14.745Z,490
2016-11-17T11:58:15.281Z,460
2016-11-17T11:59:14.539Z,425
2016-11-17T12:00:16.447Z,375
2016-11-17T12:01:14.626Z,320
2016-11-17T12:02:15.153Z,275
2016-11-17T12:03:14.644Z,255
2016-11-17T12:04:15.669Z,245
2016-11-17T12:05:15.266Z,235
2016-11-17T12:06:15.202Z,220
2016-11-17T12:07:15.558Z,205
2016-11-17T12:08:15.014Z,190
2016-11-17T12:09:15.236Z,185
2016-11-17T12:10:15.699Z,175
2016-11-17T12:11:14.936Z,170
2016-11-17T12:12:16.165Z,190
2016-11-17T12:13:14.572Z,220
2016-11-17T12:14:15.297Z,205
2016-11-17T12:15:17.400Z,175
2016-11-17T12:16:16.046Z,175
2016-11-17T12:17:16.463Z,185
2016-11-17T12:18:16.819Z,185
2016-11-17T12:19:16.539Z,180
2016-11-17T12:20:15.338Z,185
2016-11-17T12:21:15.657Z,195
2016-11-17T12:22:15.932Z,220
2016-11-17T12:23:15.652Z,245
2016-11-17T12:24:15.248Z,260
2016-11-17T12:25:14.700Z,285
2016-11-17T12:26:16.114Z,300
2016-11-17T12:27:14.891Z,305
2016-11-17T12:28:15.735Z,325
2016-11-17T12:29:16.850Z,360
2016-11-17T12:30:16.275Z,385
2016-11-17T12:31:15.933Z,395
2016-11-17T12:32:16.367Z,395
2016-11-17T12:33:15.289Z,415
2016-11-17T12:34:17.688Z,405
2016-11-17T12:35:15.460Z,380
2016-11-17T12:36:15.249Z,360
2016-11-17T12:37:15.514Z,365
2016-11-17T12:38:16.172Z,370
2016-11-17T12:39:14.987Z,400
2016-11-17T12:40:16.863Z,460
2016-11-17T12:41:15.984Z,510
2016-11-17T12:42:15.663Z,530
2016-11-17T12:43:16.233Z,500
2016-11-17T12:44:15.932Z,450
2016-11-17T12:45:16.630Z,430
2016-11-17T12:46:16.491Z,470
2016-11-17T12:47:16.181Z,535
2016-11-17T12:48:17.309Z,530
2016-11-17T12:49:16.128Z,505
2016-11-17T12:50:16.161Z,460
2016-11-17T12:51:16.545Z,405
2016-11-17T12:52:16.174Z,385
2016-11-17T12:53:17.319Z,365
2016-11-17T12:54:15.779Z,385
2016-11-17T12:55:17.238Z,445
2016-11-17T12:56:16.131Z,425
2016-11-17T12:57:17.406Z,385
2016-11-17T12:58:16.035Z,345
2016-11-17T12:59:15.704Z,310
2016-11-17T13:00:15.721Z,315
2016-11-17T13:01:16.058Z,310
2016-11-17T13:02:16.556Z,285
2016-11-17T13:03:17.398Z,340
2016-11-17T13:04:16.651Z,495
2016-11-17T13:05:17.166Z,570
2016-11-17T13:06:15.607Z,505
2016-11-17T13:07:16.605Z,410
2016-11-17T13:08:16.761Z,355
2016-11-17T13:09:17.154Z,355
2016-11-17T13:10:16.900Z,345
2016-11-17T13:11:15.877Z,335
2016-11-17T13:12:16.803Z,335
2016-11-17T13:13:16.305Z,340
2016-11-17T13:14:17.078Z,395
2016-11-17T13:15:17.407Z,460
2016-11-17T13:16:16.851Z,470
2016-11-17T13:17:18.264Z,410
2016-11-17T13:18:16.405Z,380
2016-11-17T13:19:17.390Z,370
2016-11-17T13:20:18.170Z,350
2016-11-17T13:21:17.243Z,360
2016-11-17T13:22:16.706Z,380
2016-11-17T13:23:17.176Z,410
2016-11-17T13:24:16.734Z,440
2016-11-17T13:25:17.036Z,470
2016-11-17T13:26:16.961Z,475
2016-11-17T13:27:16.915Z,470
2016-11-17T13:28:17.192Z,455
2016-11-17T13:29:17.133Z,450
2016-11-17T13:30:16.756Z,475
2016-11-17T13:31:17.465Z,455
2016-11-17T13:32:17.646Z,385
2016-11-17T13:33:16.697Z,325
2016-11-17T13:34:17.513Z,280
2016-11-17T13:35:18.307Z,265
2016-11-17T13:36:17.067Z,255
2016-11-17T13:37:17.387Z,240
2016-11-17T13:38:17.169Z,225
2016-11-17T13:39:18.030Z,215
2016-11-17T13:40:17.913Z,210
2016-11-17T13:41:17.414Z,220
2016-11-17T13:42:17.132Z,225
2016-11-17T13:43:18.600Z,230
2016-11-17T13:44:19.091Z,255
2016-11-17T13:45:17.453Z,300
2016-11-17T13:46:16.889Z,335
2016-11-17T13:47:17.716Z,305
2016-11-17T13:48:18.030Z,290
2016-11-17T13:49:17.320Z,280
2016-11-17T13:50:17.427Z,270
2016-11-17T13:51:17.017Z,275
2016-11-17T13:52:16.840Z,265
2016-11-17T13:53:17.556Z,235
2016-11-17T13:54:16.932Z,225
2016-11-17T13:55:16.877Z,210
2016-11-17T13:56:17.567Z,205
2016-11-17T13:57:17.231Z,210
2016-11-17T13:58:17.391Z,210
2016-11-17T13:59:17.813Z,195
2016-11-17T14:00:16.939Z,195
2016-11-17T14:01:17.866Z,200
2016-11-17T14:02:17.313Z,225
2016-11-17T14:03:17.158Z,240
2016-11-17T14:04:17.598Z,235
2016-11-17T14:05:17.720Z,220
2016-11-17T14:06:17.147Z,215
2016-11-17T14:07:17.458Z,205
2016-11-17T14:08:17.872Z,190
2016-11-17T14:09:19.207Z,180
2016-11-17T14:10:17.753Z,175
2016-11-17T14:11:17.508Z,175
2016-11-17T14:12:17.597Z,165
2016-11-17T14:13:16.844Z,175
2016-11-17T14:14:17.823Z,155
2016-11-17T14:15:17.390Z,130
2016-11-17T14:16:17.788Z,125